Time;durP1;ratioP1;P1;durP2;ratioP2;P2;SDS_P1;SDS_P2;PMS_P1;PMS_P2;Temp;Humidity;BMP_temperature;BMP_pressure;BME280_temperature;BME280_humidity;BME280_pressure;Samples;Min_cycle;Max_cycle;Signal;HPM_P1;HPM_P2
2022/10/11 00:01:57;;;;;;;;;;;16.80;68.00;;;;;;5092098;28;20382;-73
2022/10/11 00:04:24;;;;;;;;;;;17.00;67.90;;;;;;5092290;28;19915;-74
2022/10/11 00:06:50;;;;;;;;;;;17.20;68.00;;;;;;5092143;28;19912;-74
2022/10/11 00:09:17;;;;;;;;;;;17.20;66.80;;;;;;5091931;28;19912;-73
2022/10/11 00:11:44;;;;;;;;;;;17.30;65.80;;;;;;5092084;28;20280;-74
2022/10/11 00:14:10;;;;;;;;;;;17.30;66.60;;;;;;5091958;28;19911;-74
2022/10/11 00:16:39;;;;;;;;;;;17.40;66.40;;;;;;5091933;28;20026;-74
2022/10/11 00:19:06;;;;;;;;;;;17.40;66.00;;;;;;5091589;28;19909;-74
2022/10/11 00:21:33;;;;;;;;;;;17.40;66.90;;;;;;5091865;28;20263;-74
2022/10/11 00:23:59;;;;;;;;;;;17.40;67.10;;;;;;5092018;28;20386;-74
2022/10/11 00:26:26;;;;;;;;;;;17.50;66.20;;;;;;5092279;28;19931;-73
2022/10/11 00:28:53;;;;;;;;;;;17.40;66.70;;;;;;5091748;28;19948;-73
2022/10/11 00:31:19;;;;;;;;;;;17.50;66.50;;;;;;5092105;28;19908;-74
2022/10/11 00:33:46;;;;;;;;;;;17.50;65.70;;;;;;5091761;28;20382;-74
2022/10/11 00:36:13;;;;;;;;;;;17.50;66.50;;;;;;5092010;28;20374;-74
2022/10/11 00:38:40;;;;;;;;;;;17.60;66.30;;;;;;5074026;28;20041;-74
2022/10/11 00:41:06;;;;;;;;;;;17.60;65.90;;;;;;5091875;28;20416;-74
2022/10/11 00:43:33;;;;;;;;;;;17.60;65.70;;;;;;5091769;28;20021;-74
2022/10/11 00:46:01;;;;;;;;;;;17.60;66.20;;;;;;5092705;28;19908;-74
2022/10/11 00:48:39;;;;;;;;;;;17.70;65.60;;;;;;5095709;28;19908;-74
2022/10/11 00:51:09;;;;;;;;;;;17.60;66.00;;;;;;5095384;28;19908;-74
2022/10/11 00:53:36;;;;;;;;;;;17.60;65.00;;;;;;5090565;28;19908;-74
2022/10/11 00:56:14;;;;;;;;;;;17.50;65.30;;;;;;5095568;28;19912;-74
2022/10/11 00:58:40;;;;;;;;;;;17.50;65.10;;;;;;5095409;28;19916;-74
2022/10/11 01:01:07;;;;;;;;;;;17.50;64.90;;;;;;5095274;28;19938;-74
2022/10/11 01:03:34;;;;;;;;;;;17.50;65.30;;;;;;5094874;28;19912;-74
2022/10/11 01:06:02;;;;;;;;;;;17.50;66.50;;;;;;5076945;28;19907;-74
2022/10/11 01:08:28;;;;;;;;;;;17.40;65.50;;;;;;5095107;28;19919;-73
2022/10/11 01:10:55;;;;;;;;;;;17.50;66.40;;;;;;5077248;28;19943;-74
2022/10/11 01:13:40;;;;;;;;;;;17.50;66.70;;;;;;5094976;28;19912;-74
2022/10/11 01:16:07;;;;;;;;;;;17.50;66.60;;;;;;5094851;28;19956;-73
2022/10/11 01:18:42;;;;;;;;;;;17.50;65.80;;;;;;5094529;28;20256;-73
2022/10/11 01:21:12;;;;;;;;;;;17.60;66.00;;;;;;5095123;28;19995;-73
2022/10/11 01:23:56;;;;;;;;;;;17.70;66.30;;;;;;5094803;28;19908;-74
2022/10/11 01:26:32;;;;;;;;;;;17.70;66.70;;;;;;5094861;28;19915;-73
2022/10/11 01:28:59;;;;;;;;;;;17.80;66.00;;;;;;5094449;28;19914;-73
2022/10/11 01:31:27;;;;;;;;;;;17.80;65.50;;;;;;5094591;28;19954;-74
2022/10/11 01:33:54;;;;;;;;;;;17.80;65.20;;;;;;5076386;28;20378;-73
2022/10/11 01:36:27;;;;;;;;;;;17.90;66.40;;;;;;5076614;28;19912;-74
2022/10/11 01:38:56;;;;;;;;;;;17.90;65.80;;;;;;5076287;28;19912;-74
2022/10/11 01:41:24;;;;;;;;;;;17.90;66.10;;;;;;5076444;28;20004;-73
2022/10/11 01:43:54;;;;;;;;;;;18.00;66.40;;;;;;5076304;28;19950;-74
2022/10/11 01:46:21;;;;;;;;;;;18.00;65.10;;;;;;5094231;28;19931;-73
2022/10/11 01:48:49;;;;;;;;;;;18.00;65.70;;;;;;5094243;28;20370;-74
2022/10/11 01:51:15;;;;;;;;;;;18.00;64.10;;;;;;5077946;28;19962;-74
2022/10/11 01:53:45;;;;;;;;;;;18.00;65.20;;;;;;5106525;28;19935;-74
2022/10/11 01:56:33;;;;;;;;;;;18.00;64.40;;;;;;5093696;28;19935;-74
2022/10/11 01:59:12;;;;;;;;;;;18.00;64.80;;;;;;5076096;28;19912;-74
2022/10/11 02:01:48;;;;;;;;;;;17.90;65.30;;;;;;5093839;28;19908;-74
2022/10/11 02:04:15;;;;;;;;;;;17.90;65.00;;;;;;5094208;28;19908;-74
2022/10/11 02:06:51;;;;;;;;;;;17.90;64.90;;;;;;5094083;28;19912;-73
2022/10/11 02:09:21;;;;;;;;;;;18.00;64.40;;;;;;5093817;28;20298;-74
2022/10/11 02:11:48;;;;;;;;;;;18.10;64.00;;;;;;5093585;28;20366;-74
2022/10/11 02:14:21;;;;;;;;;;;18.10;64.30;;;;;;5094094;28;19995;-74
2022/10/11 02:16:55;;;;;;;;;;;18.00;64.30;;;;;;5075701;28;19916;-74
2022/10/11 02:19:24;;;;;;;;;;;18.10;64.00;;;;;;5075742;28;19908;-73
2022/10/11 02:21:51;;;;;;;;;;;18.10;65.10;;;;;;5075762;28;19920;-73
2022/10/11 02:24:28;;;;;;;;;;;18.10;65.00;;;;;;5075907;28;19982;-74
2022/10/11 02:26:55;;;;;;;;;;;18.20;65.50;;;;;;5075647;28;20393;-73
2022/10/11 02:29:22;;;;;;;;;;;18.20;62.30;;;;;;5075472;28;19912;-74
2022/10/11 02:31:49;;;;;;;;;;;18.20;64.40;;;;;;5075523;28;19911;-74
2022/10/11 02:34:23;;;;;;;;;;;18.20;65.20;;;;;;5055195;28;19920;-74
2022/10/11 02:36:56;;;;;;;;;;;18.30;61.90;;;;;;5081149;28;19911;-73
2022/10/11 02:39:24;;;;;;;;;;;18.20;61.80;;;;;;5075581;28;20385;-73
2022/10/11 02:41:51;;;;;;;;;;;18.20;62.60;;;;;;5075490;28;19973;-73
2022/10/11 02:44:30;;;;;;;;;;;18.20;63.20;;;;;;5093413;28;19912;-73
2022/10/11 02:46:57;;;;;;;;;;;18.20;64.10;;;;;;5093260;28;19916;-73
2022/10/11 02:49:24;;;;;;;;;;;18.30;64.10;;;;;;5074991;28;20270;-74
2022/10/11 02:51:50;;;;;;;;;;;18.30;62.00;;;;;;5099895;28;20417;-73
2022/10/11 02:54:17;;;;;;;;;;;18.30;63.10;;;;;;5100520;28;19938;-73
2022/10/11 02:56:44;;;;;;;;;;;18.30;64.50;;;;;;5074622;28;19912;-73
2022/10/11 02:59:10;;;;;;;;;;;18.30;62.30;;;;;;5092693;28;20439;-73
2022/10/11 03:01:37;;;;;;;;;;;18.30;63.50;;;;;;5092725;28;19908;-73
2022/10/11 03:04:04;;;;;;;;;;;18.30;62.80;;;;;;5092841;28;19912;-73
2022/10/11 03:06:30;;;;;;;;;;;18.30;63.40;;;;;;5092520;28;20389;-73
2022/10/11 03:08:57;;;;;;;;;;;18.30;63.90;;;;;;5092145;28;19908;-73
2022/10/11 03:11:24;;;;;;;;;;;18.30;65.20;;;;;;5092436;28;20335;-73
2022/10/11 03:13:50;;;;;;;;;;;18.30;63.50;;;;;;5093113;28;19915;-74
2022/10/11 03:16:17;;;;;;;;;;;18.30;64.70;;;;;;5092797;28;20002;-73
2022/10/11 03:18:44;;;;;;;;;;;18.30;64.90;;;;;;5092516;28;19920;-73
2022/10/11 03:21:10;;;;;;;;;;;18.30;63.70;;;;;;5092989;28;20335;-73
2022/10/11 03:23:37;;;;;;;;;;;18.30;64.70;;;;;;5092438;28;19986;-73
2022/10/11 03:26:04;;;;;;;;;;;18.30;63.70;;;;;;5092270;28;19908;-73
2022/10/11 03:28:30;;;;;;;;;;;18.30;64.80;;;;;;5092288;28;19909;-74
2022/10/11 03:30:57;;;;;;;;;;;18.30;65.90;;;;;;5092766;28;19995;-73
2022/10/11 03:33:23;;;;;;;;;;;18.30;65.50;;;;;;5092390;28;19927;-73
2022/10/11 03:35:50;;;;;;;;;;;18.20;63.40;;;;;;5092223;28;19912;-74
2022/10/11 03:38:18;;;;;;;;;;;18.20;64.50;;;;;;5092166;28;19997;-73
2022/10/11 03:40:45;;;;;;;;;;;18.30;65.50;;;;;;5092491;28;20277;-73
2022/10/11 03:43:11;;;;;;;;;;;18.30;65.10;;;;;;5092542;28;19915;-73
2022/10/11 03:45:41;;;;;;;;;;;18.30;64.70;;;;;;5092644;28;19913;-73
2022/10/11 03:48:07;;;;;;;;;;;18.30;64.90;;;;;;5092239;28;19999;-73
2022/10/11 03:50:35;;;;;;;;;;;18.40;65.70;;;;;;5092331;28;19916;-74
2022/10/11 03:53:01;;;;;;;;;;;18.40;65.10;;;;;;5106462;28;19915;-73
2022/10/11 03:55:28;;;;;;;;;;;18.40;63.30;;;;;;5092379;28;20007;-73
2022/10/11 03:57:55;;;;;;;;;;;18.40;63.30;;;;;;5092288;28;19916;-73
2022/10/11 04:00:21;;;;;;;;;;;18.40;63.10;;;;;;5092020;28;20358;-73
2022/10/11 04:02:48;;;;;;;;;;;18.50;63.80;;;;;;5074168;28;19908;-74
2022/10/11 04:05:15;;;;;;;;;;;18.40;64.50;;;;;;5091668;28;19908;-74
2022/10/11 04:07:41;;;;;;;;;;;18.50;63.70;;;;;;5092072;28;19991;-73
2022/10/11 04:10:08;;;;;;;;;;;18.40;64.80;;;;;;5091801;28;20366;-73
2022/10/11 04:12:36;;;;;;;;;;;18.30;63.20;;;;;;5092053;28;19944;-74
2022/10/11 04:15:02;;;;;;;;;;;18.30;63.20;;;;;;5092044;28;20378;-73
2022/10/11 04:17:29;;;;;;;;;;;18.30;64.30;;;;;;5092071;28;19923;-73
2022/10/11 04:19:56;;;;;;;;;;;18.30;64.60;;;;;;5092007;28;20344;-73
2022/10/11 04:22:22;;;;;;;;;;;18.30;64.10;;;;;;5095519;28;19908;-74
2022/10/11 04:24:49;;;;;;;;;;;18.30;64.20;;;;;;5095838;28;19908;-73
2022/10/11 04:27:16;;;;;;;;;;;18.30;63.70;;;;;;5095699;28;19908;-73
2022/10/11 04:29:42;;;;;;;;;;;18.30;64.00;;;;;;5095934;28;19909;-73
2022/10/11 04:32:09;;;;;;;;;;;18.30;63.80;;;;;;5095628;28;19908;-74
2022/10/11 04:34:35;;;;;;;;;;;18.30;63.90;;;;;;5095634;28;19924;-74
2022/10/11 04:37:02;;;;;;;;;;;18.30;65.80;;;;;;5094932;28;19922;-73
2022/10/11 04:39:29;;;;;;;;;;;18.30;63.50;;;;;;5095722;28;20393;-73
2022/10/11 04:41:55;;;;;;;;;;;18.30;63.70;;;;;;5095107;28;19985;-73
2022/10/11 04:44:22;;;;;;;;;;;18.30;64.90;;;;;;5095132;28;19944;-73
2022/10/11 04:46:49;;;;;;;;;;;18.20;65.00;;;;;;5095316;28;19914;-73
2022/10/11 04:49:15;;;;;;;;;;;18.30;64.70;;;;;;5077138;28;19909;-75
2022/10/11 04:51:42;;;;;;;;;;;18.20;62.80;;;;;;5100456;28;19914;-75
2022/10/11 04:54:09;;;;;;;;;;;18.20;64.20;;;;;;5103871;28;19970;-75
2022/10/11 04:56:35;;;;;;;;;;;18.20;64.50;;;;;;5095190;28;19912;-75
2022/10/11 04:59:02;;;;;;;;;;;18.20;64.70;;;;;;5095374;28;19912;-75
2022/10/11 05:01:29;;;;;;;;;;;18.20;65.50;;;;;;5094961;28;19908;-75
2022/10/11 05:03:55;;;;;;;;;;;18.20;64.40;;;;;;5095354;28;19965;-75
2022/10/11 05:06:22;;;;;;;;;;;18.20;64.90;;;;;;5095115;28;19919;-75
2022/10/11 05:08:49;;;;;;;;;;;18.20;65.10;;;;;;5076895;28;20294;-75
2022/10/11 05:11:15;;;;;;;;;;;18.20;64.40;;;;;;5095034;28;19930;-75
2022/10/11 05:13:42;;;;;;;;;;;18.20;64.60;;;;;;5094700;28;19916;-75
2022/10/11 05:16:09;;;;;;;;;;;18.20;63.60;;;;;;5094745;28;19915;-75
2022/10/11 05:18:36;;;;;;;;;;;18.20;64.20;;;;;;5094995;28;20374;-76
2022/10/11 05:21:22;;;;;;;;;;;18.20;62.90;;;;;;5094766;28;19940;-75
2022/10/11 05:23:49;;;;;;;;;;;18.10;63.40;;;;;;5094260;28;19912;-76
2022/10/11 05:26:16;;;;;;;;;;;18.20;64.00;;;;;;5095190;28;20250;-74
2022/10/11 05:28:43;;;;;;;;;;;18.10;62.60;;;;;;5093913;28;19916;-73
2022/10/11 05:31:10;;;;;;;;;;;18.20;62.50;;;;;;5076102;28;19934;-73
2022/10/11 05:33:37;;;;;;;;;;;18.10;62.70;;;;;;5093496;28;19977;-76
2022/10/11 05:36:04;;;;;;;;;;;18.10;62.40;;;;;;5076320;28;19960;-77
2022/10/11 05:38:30;;;;;;;;;;;18.10;62.30;;;;;;5094187;28;19924;-74
2022/10/11 05:41:00;;;;;;;;;;;18.10;62.40;;;;;;5076610;28;19915;-74
2022/10/11 05:43:27;;;;;;;;;;;18.20;61.40;;;;;;5094514;28;19986;-75
2022/10/11 05:45:54;;;;;;;;;;;18.20;62.50;;;;;;5094577;28;19909;-74
2022/10/11 05:48:21;;;;;;;;;;;18.20;63.50;;;;;;5094269;28;19943;-74
2022/10/11 05:50:47;;;;;;;;;;;18.30;63.70;;;;;;5093833;28;19908;-74
2022/10/11 05:53:14;;;;;;;;;;;18.30;61.10;;;;;;5100871;28;20366;-73
2022/10/11 05:55:41;;;;;;;;;;;18.20;61.70;;;;;;5094168;28;20294;-74
2022/10/11 05:58:09;;;;;;;;;;;18.20;62.40;;;;;;5093131;28;20442;-73
2022/10/11 06:00:38;;;;;;;;;;;18.20;61.90;;;;;;5096392;28;19919;-73
2022/10/11 06:03:05;;;;;;;;;;;18.20;62.30;;;;;;5092268;28;19912;-73
2022/10/11 06:05:33;;;;;;;;;;;18.20;63.50;;;;;;5075799;28;19934;-73
2022/10/11 06:07:59;;;;;;;;;;;18.20;63.60;;;;;;5093662;28;19908;-73
2022/10/11 06:10:26;;;;;;;;;;;18.20;63.40;;;;;;5093514;28;19912;-73
2022/10/11 06:12:53;;;;;;;;;;;18.10;63.40;;;;;;5093217;28;19915;-73
2022/10/11 06:15:19;;;;;;;;;;;18.10;63.00;;;;;;5093525;28;19935;-73
2022/10/11 06:17:46;;;;;;;;;;;18.10;62.90;;;;;;5093512;28;19927;-73
2022/10/11 06:20:13;;;;;;;;;;;18.00;63.70;;;;;;5093320;28;20328;-73
2022/10/11 06:22:39;;;;;;;;;;;18.00;62.90;;;;;;5093384;28;19962;-73
2022/10/11 06:25:06;;;;;;;;;;;17.90;61.00;;;;;;5092909;28;20309;-73
2022/10/11 06:27:33;;;;;;;;;;;17.90;62.10;;;;;;5071988;28;19954;-73
2022/10/11 06:30:00;;;;;;;;;;;17.90;62.20;;;;;;5091864;28;20452;-73
2022/10/11 10:20:33;;;;;;;;;;;16.60;76.40;;;;;;5089037;28;20015;-72
2022/10/11 10:23:10;;;;;;;;;;;16.60;76.20;;;;;;5093409;28;20811;-72
2022/10/11 10:25:38;;;;;;;;;;;16.60;76.60;;;;;;5090908;28;19912;-72
2022/10/11 10:28:24;;;;;;;;;;;16.50;77.10;;;;;;5097619;28;19916;-71
2022/10/11 10:30:53;;;;;;;;;;;16.50;76.70;;;;;;5090652;28;19930;-71
2022/10/11 10:33:20;;;;;;;;;;;16.50;77.40;;;;;;5090737;28;20362;-71
2022/10/11 10:35:56;;;;;;;;;;;16.50;77.20;;;;;;5090666;28;19912;-71
2022/10/11 10:38:25;;;;;;;;;;;16.50;77.20;;;;;;5093639;28;19924;-71
2022/10/11 10:40:52;;;;;;;;;;;16.50;77.60;;;;;;5090538;28;19920;-71
2022/10/11 10:43:21;;;;;;;;;;;16.50;77.70;;;;;;5090481;28;19912;-71
2022/10/11 10:46:05;;;;;;;;;;;16.50;77.70;;;;;;5101628;28;19911;-71
2022/10/11 10:48:32;;;;;;;;;;;16.40;77.70;;;;;;5090621;28;19919;-71
2022/10/11 10:51:00;;;;;;;;;;;16.50;77.50;;;;;;5090571;28;20011;-71
2022/10/11 10:53:29;;;;;;;;;;;16.50;77.30;;;;;;5108962;28;19920;-72
2022/10/11 10:56:00;;;;;;;;;;;16.40;77.20;;;;;;5098701;28;19912;-70
2022/10/11 10:58:37;;;;;;;;;;;16.50;77.30;;;;;;5090505;28;19916;-73
2022/10/11 11:01:13;;;;;;;;;;;16.40;77.50;;;;;;5090860;28;19966;-73
2022/10/11 11:03:58;;;;;;;;;;;16.40;78.00;;;;;;5088989;28;19915;-72
2022/10/11 11:06:33;;;;;;;;;;;16.40;77.90;;;;;;5090239;28;19919;-73
2022/10/11 11:09:03;;;;;;;;;;;16.30;78.00;;;;;;5092636;28;20349;-73
2022/10/11 11:11:36;;;;;;;;;;;16.30;78.50;;;;;;5105460;28;19994;-73
2022/10/11 11:14:06;;;;;;;;;;;16.30;78.60;;;;;;5092606;28;19962;-73
2022/10/11 11:16:43;;;;;;;;;;;16.20;78.80;;;;;;5092734;28;20007;-72
2022/10/11 11:19:19;;;;;;;;;;;16.20;79.00;;;;;;5110813;28;19916;-72
2022/10/11 11:21:58;;;;;;;;;;;16.20;79.40;;;;;;5097839;28;19924;-72
2022/10/11 11:24:38;;;;;;;;;;;16.20;79.60;;;;;;5092706;28;19938;-72
2022/10/11 11:27:08;;;;;;;;;;;16.10;79.80;;;;;;5091467;28;20005;-72
2022/10/11 11:29:47;;;;;;;;;;;16.10;80.00;;;;;;5092639;28;19966;-72
2022/10/11 11:32:19;;;;;;;;;;;16.10;79.80;;;;;;5092584;28;19924;-72
2022/10/11 11:34:47;;;;;;;;;;;16.10;79.80;;;;;;5092621;28;20385;-72
2022/10/11 11:37:22;;;;;;;;;;;16.20;79.90;;;;;;5088027;28;20339;-72
2022/10/11 11:39:50;;;;;;;;;;;16.10;79.30;;;;;;5105519;28;19911;-72
2022/10/11 11:42:25;;;;;;;;;;;16.20;79.50;;;;;;5095443;28;19951;-72
2022/10/11 11:44:52;;;;;;;;;;;16.20;80.00;;;;;;5091217;28;19923;-72
2022/10/11 11:47:25;;;;;;;;;;;16.20;80.00;;;;;;5092343;28;19912;-73
2022/10/11 11:49:55;;;;;;;;;;;16.20;79.70;;;;;;5099642;28;19935;-72
2022/10/11 11:52:45;;;;;;;;;;;16.20;79.30;;;;;;5109231;28;19912;-72
2022/10/11 11:55:21;;;;;;;;;;;16.20;79.80;;;;;;5086855;28;20280;-72
2022/10/11 11:57:56;;;;;;;;;;;16.20;79.40;;;;;;5092211;28;19951;-72
2022/10/11 12:00:24;;;;;;;;;;;16.20;79.80;;;;;;5091109;28;20289;-72
2022/10/11 12:02:57;;;;;;;;;;;16.20;79.30;;;;;;5090939;28;19908;-72
2022/10/11 12:05:25;;;;;;;;;;;16.20;79.30;;;;;;5092039;28;19951;-72
2022/10/11 12:07:52;;;;;;;;;;;16.20;79.50;;;;;;5092265;28;19915;-72
2022/10/11 12:10:39;;;;;;;;;;;16.20;79.10;;;;;;5099636;28;19912;-72
2022/10/11 12:13:05;;;;;;;;;;;16.20;79.40;;;;;;5091712;28;19935;-72
2022/10/11 12:15:32;;;;;;;;;;;16.30;79.10;;;;;;5091911;28;20473;-72
2022/10/11 12:17:59;;;;;;;;;;;16.30;78.90;;;;;;5092147;28;19916;-72
2022/10/11 12:20:35;;;;;;;;;;;16.30;78.70;;;;;;5090946;28;20286;-72
2022/10/11 12:23:22;;;;;;;;;;;16.30;78.80;;;;;;5090917;28;20011;-72
2022/10/11 12:26:08;;;;;;;;;;;16.40;79.00;;;;;;5091862;28;19908;-72
2022/10/11 12:28:41;;;;;;;;;;;16.40;78.70;;;;;;5093554;28;19912;-72
2022/10/11 12:31:17;;;;;;;;;;;16.30;78.70;;;;;;5100977;28;19912;-72
2022/10/11 12:33:47;;;;;;;;;;;16.30;79.00;;;;;;5091960;28;19908;-72
2022/10/11 12:36:32;;;;;;;;;;;16.30;78.90;;;;;;5090850;28;19908;-73
2022/10/11 12:39:21;;;;;;;;;;;16.30;79.20;;;;;;5091582;28;19916;-72
2022/10/11 12:44:17;;;;;;;;;;;16.30;78.90;;;;;;5097775;27;19912;-72
2022/10/11 12:46:52;;;;;;;;;;;16.30;78.90;;;;;;5095406;28;19908;-72
2022/10/11 12:49:54;;;;;;;;;;;16.30;78.90;;;;;;5096460;28;19999;-72
2022/10/11 12:52:22;;;;;;;;;;;16.20;79.40;;;;;;5032734;28;19913;-72
2022/10/11 12:55:07;;;;;;;;;;;16.20;79.00;;;;;;5085334;28;19923;-72
2022/10/11 12:57:52;;;;;;;;;;;16.20;79.30;;;;;;5095627;28;19920;-72
2022/10/11 13:00:29;;;;;;;;;;;16.20;79.40;;;;;;5102354;28;19958;-72
2022/10/11 13:02:57;;;;;;;;;;;16.20;79.40;;;;;;5094148;28;20010;-73
2022/10/11 13:05:32;;;;;;;;;;;16.20;79.70;;;;;;5095328;28;19908;-72
2022/10/11 13:08:02;;;;;;;;;;;16.20;79.30;;;;;;5095323;28;19950;-72
2022/10/11 13:10:30;;;;;;;;;;;16.20;79.30;;;;;;5102452;28;20010;-72
2022/10/11 13:12:58;;;;;;;;;;;16.10;79.00;;;;;;5095024;28;19912;-72
2022/10/11 13:15:25;;;;;;;;;;;16.10;79.20;;;;;;5094868;28;19998;-72
2022/10/11 13:17:57;;;;;;;;;;;16.20;79.30;;;;;;5093905;28;20385;-72
2022/10/11 13:20:24;;;;;;;;;;;16.20;79.10;;;;;;5094988;28;19920;-71
2022/10/11 13:22:52;;;;;;;;;;;16.20;79.00;;;;;;5093692;28;20285;-72
2022/10/11 13:25:20;;;;;;;;;;;16.20;78.90;;;;;;5094881;28;19909;-72
2022/10/11 13:27:47;;;;;;;;;;;16.20;79.10;;;;;;5094943;28;19915;-72
2022/10/11 13:30:18;;;;;;;;;;;16.20;79.20;;;;;;5094049;28;19912;-72
2022/10/11 13:32:45;;;;;;;;;;;16.10;78.90;;;;;;5098337;28;20371;-72
2022/10/11 13:35:23;;;;;;;;;;;16.10;79.00;;;;;;5110688;28;19912;-72
2022/10/11 13:37:50;;;;;;;;;;;16.10;79.00;;;;;;5093566;28;19920;-73
2022/10/11 13:40:18;;;;;;;;;;;16.10;79.10;;;;;;5095927;28;19916;-72
2022/10/11 13:42:47;;;;;;;;;;;16.10;79.00;;;;;;5092560;28;19912;-72
2022/10/11 13:45:15;;;;;;;;;;;16.10;79.20;;;;;;5105739;28;19956;-72
2022/10/11 13:47:41;;;;;;;;;;;16.10;79.00;;;;;;5106060;28;20011;-72
2022/10/11 13:50:10;;;;;;;;;;;16.10;79.00;;;;;;5094526;28;19919;-72
2022/10/11 13:52:46;;;;;;;;;;;16.10;79.30;;;;;;5104422;28;20348;-72
2022/10/11 13:55:22;;;;;;;;;;;16.10;79.10;;;;;;5099292;28;19908;-72
2022/10/11 13:57:51;;;;;;;;;;;16.00;79.00;;;;;;5101082;28;19923;-72
2022/10/11 14:00:21;;;;;;;;;;;16.00;79.40;;;;;;5094601;28;19947;-72
2022/10/11 14:03:08;;;;;;;;;;;16.00;79.20;;;;;;5094290;28;19909;-72
2022/10/11 14:05:44;;;;;;;;;;;16.00;79.10;;;;;;5083042;28;19971;-72
2022/10/11 14:08:20;;;;;;;;;;;16.00;79.10;;;;;;5092254;28;19985;-72
2022/10/11 14:10:47;;;;;;;;;;;15.90;79.10;;;;;;5104561;28;19912;-72
2022/10/11 14:13:24;;;;;;;;;;;15.90;79.40;;;;;;5107152;28;19952;-72
2022/10/11 14:15:59;;;;;;;;;;;15.90;79.30;;;;;;5092388;28;20461;-72
2022/10/11 14:18:40;;;;;;;;;;;15.90;79.30;;;;;;5107197;28;19961;-72
2022/10/11 14:21:19;;;;;;;;;;;15.90;79.30;;;;;;5102256;28;19920;-72
2022/10/11 14:23:45;;;;;;;;;;;15.80;79.50;;;;;;5093694;28;19953;-72
2022/10/11 14:26:15;;;;;;;;;;;15.90;79.50;;;;;;5093653;28;20400;-72
2022/10/11 14:28:41;;;;;;;;;;;15.80;79.60;;;;;;5093644;28;19909;-72
2022/10/11 14:31:09;;;;;;;;;;;15.80;79.80;;;;;;5102369;28;19938;-72
2022/10/11 14:33:35;;;;;;;;;;;15.80;79.80;;;;;;5104793;28;20362;-72
2022/10/11 14:36:02;;;;;;;;;;;15.70;80.00;;;;;;5092969;28;19948;-72
2022/10/11 14:38:29;;;;;;;;;;;15.70;80.10;;;;;;5093755;28;20582;-72
2022/10/11 14:40:56;;;;;;;;;;;15.70;80.40;;;;;;5093184;28;20011;-72
2022/10/11 14:43:22;;;;;;;;;;;15.70;80.60;;;;;;5102943;28;20009;-72
2022/10/11 14:45:49;;;;;;;;;;;15.70;80.90;;;;;;5097467;28;20389;-73
2022/10/11 14:48:15;;;;;;;;;;;15.70;80.90;;;;;;5100066;28;19912;-72
2022/10/11 14:50:42;;;;;;;;;;;15.70;80.90;;;;;;5098294;28;19912;-72
2022/10/11 14:53:09;;;;;;;;;;;15.70;81.00;;;;;;5107998;28;19955;-72
2022/10/11 14:55:36;;;;;;;;;;;15.70;81.10;;;;;;5093415;28;19940;-72
2022/10/11 14:58:03;;;;;;;;;;;15.70;81.30;;;;;;5092920;28;20011;-73
2022/10/11 15:00:30;;;;;;;;;;;15.70;81.50;;;;;;5093040;28;19938;-72
2022/10/11 15:02:56;;;;;;;;;;;15.60;81.60;;;;;;5093036;28;19931;-72
2022/10/11 15:05:23;;;;;;;;;;;15.60;81.80;;;;;;5111288;28;20366;-72
2022/10/11 15:07:50;;;;;;;;;;;15.50;82.20;;;;;;5100925;28;19915;-73
2022/10/11 15:10:17;;;;;;;;;;;15.40;82.40;;;;;;5092913;28;19954;-72
2022/10/11 15:12:44;;;;;;;;;;;15.30;82.60;;;;;;5092812;28;19981;-73
2022/10/11 15:15:11;;;;;;;;;;;15.30;82.80;;;;;;5098863;28;20015;-72
2022/10/11 15:17:37;;;;;;;;;;;15.30;83.10;;;;;;5098770;28;19916;-72
2022/10/11 15:20:04;;;;;;;;;;;15.20;83.40;;;;;;5102732;28;19965;-72
2022/10/11 15:22:31;;;;;;;;;;;15.20;83.80;;;;;;5092354;28;19912;-72
2022/10/11 15:24:59;;;;;;;;;;;15.20;84.10;;;;;;5092768;28;19905;-72
2022/10/11 15:27:27;;;;;;;;;;;15.20;84.40;;;;;;5092564;28;19913;-73
2022/10/11 15:29:54;;;;;;;;;;;15.10;84.70;;;;;;5100698;28;19916;-72
2022/10/11 15:32:20;;;;;;;;;;;15.00;84.70;;;;;;5096718;28;20011;-72
2022/10/11 15:34:47;;;;;;;;;;;15.00;84.90;;;;;;5102690;28;20378;-72
2022/10/11 15:37:14;;;;;;;;;;;15.00;84.90;;;;;;5092435;28;19912;-72
2022/10/11 15:39:40;;;;;;;;;;;14.90;85.00;;;;;;5095070;28;19912;-72
2022/10/11 15:42:07;;;;;;;;;;;14.80;85.20;;;;;;5098084;28;20313;-72
2022/10/11 15:44:34;;;;;;;;;;;14.80;85.30;;;;;;5092482;28;19935;-72
2022/10/11 15:47:00;;;;;;;;;;;14.80;85.30;;;;;;5092519;28;19908;-72
2022/10/11 15:49:27;;;;;;;;;;;14.80;85.30;;;;;;5092130;28;20421;-72
2022/10/11 15:51:54;;;;;;;;;;;14.80;85.00;;;;;;5104768;28;19918;-72
2022/10/11 15:54:20;;;;;;;;;;;14.80;84.80;;;;;;5098537;28;19916;-72
2022/10/11 15:56:47;;;;;;;;;;;14.80;84.70;;;;;;5092301;28;20374;-72
2022/10/11 15:59:14;;;;;;;;;;;14.80;84.60;;;;;;5099724;28;20373;-72
2022/10/11 16:01:40;;;;;;;;;;;14.80;84.30;;;;;;5095144;28;19958;-72
2022/10/11 16:04:07;;;;;;;;;;;14.90;84.50;;;;;;5092087;28;20366;-72
2022/10/11 16:06:34;;;;;;;;;;;14.80;84.20;;;;;;5092654;28;19919;-72
2022/10/11 16:09:00;;;;;;;;;;;14.90;84.20;;;;;;5104206;28;19924;-73
2022/10/11 16:11:27;;;;;;;;;;;14.90;84.10;;;;;;5092255;28;19911;-72
2022/10/11 16:13:54;;;;;;;;;;;14.90;84.20;;;;;;5092465;28;19915;-73
2022/10/11 16:16:20;;;;;;;;;;;14.90;84.30;;;;;;5093996;28;19912;-72
2022/10/11 16:18:49;;;;;;;;;;;14.80;84.40;;;;;;5096087;28;19924;-72
2022/10/11 16:21:15;;;;;;;;;;;14.90;84.20;;;;;;5095206;28;20467;-72
2022/10/11 16:23:42;;;;;;;;;;;14.80;84.20;;;;;;5095717;28;19908;-72
2022/10/11 16:26:10;;;;;;;;;;;14.90;84.30;;;;;;5096217;28;19953;-73
2022/10/11 16:28:37;;;;;;;;;;;14.80;84.50;;;;;;5095938;28;19962;-73
2022/10/11 16:31:11;;;;;;;;;;;14.90;84.40;;;;;;5095860;28;19919;-73
2022/10/11 16:33:44;;;;;;;;;;;14.80;84.30;;;;;;5095149;28;19912;-72
2022/10/11 16:38:56;;;;;;;;;;;14.80;84.60;;;;;;5095430;28;20327;-73
2022/10/11 16:41:23;;;;;;;;;;;14.80;84.50;;;;;;5095448;28;19931;-72
2022/10/11 16:43:50;;;;;;;;;;;14.80;84.30;;;;;;5095495;28;19919;-72
2022/10/11 16:46:17;;;;;;;;;;;14.80;84.30;;;;;;5094436;28;20362;-73
2022/10/11 16:48:44;;;;;;;;;;;14.80;84.30;;;;;;5094254;28;19920;-73
2022/10/11 16:51:11;;;;;;;;;;;14.80;84.20;;;;;;5094940;28;19914;-72
2022/10/11 16:53:37;;;;;;;;;;;14.80;84.30;;;;;;5095439;28;19912;-72
2022/10/11 16:56:05;;;;;;;;;;;14.90;84.20;;;;;;5095579;28;19908;-73
2022/10/11 16:58:32;;;;;;;;;;;14.90;84.20;;;;;;5094686;28;19985;-72
2022/10/11 17:00:59;;;;;;;;;;;14.90;84.20;;;;;;5077278;28;19965;-72
2022/10/11 17:03:25;;;;;;;;;;;14.90;84.20;;;;;;5095341;28;20366;-72
2022/10/11 17:05:52;;;;;;;;;;;14.90;84.30;;;;;;5095263;28;19909;-72
2022/10/11 17:08:19;;;;;;;;;;;14.80;84.30;;;;;;5095039;28;19951;-72
2022/10/11 17:10:48;;;;;;;;;;;14.90;84.60;;;;;;5095033;28;19908;-72
2022/10/11 17:13:14;;;;;;;;;;;14.90;84.60;;;;;;5076994;28;19930;-73
2022/10/11 17:15:41;;;;;;;;;;;14.90;84.50;;;;;;5092828;28;20003;-72
2022/10/11 17:18:08;;;;;;;;;;;14.90;84.30;;;;;;5092663;28;19916;-73
2022/10/11 17:20:34;;;;;;;;;;;15.00;84.30;;;;;;5104137;28;20300;-72
2022/10/11 17:23:01;;;;;;;;;;;15.00;84.30;;;;;;5115144;28;19911;-72
2022/10/11 17:25:28;;;;;;;;;;;15.00;84.10;;;;;;5112588;28;19919;-72
2022/10/11 17:27:55;;;;;;;;;;;15.00;84.00;;;;;;5114114;28;20277;-72
2022/10/11 17:30:22;;;;;;;;;;;15.00;84.10;;;;;;5114407;28;19996;-73
2022/10/11 17:32:52;;;;;;;;;;;15.00;84.00;;;;;;5115536;28;19907;-72
2022/10/11 17:35:18;;;;;;;;;;;15.00;83.90;;;;;;5105833;28;19911;-73
2022/10/11 17:37:45;;;;;;;;;;;15.10;84.00;;;;;;5114843;28;20049;-72
2022/10/11 17:40:12;;;;;;;;;;;15.10;84.20;;;;;;5114836;28;19907;-73
2022/10/11 17:42:38;;;;;;;;;;;15.00;84.30;;;;;;5114990;28;19998;-72
2022/10/11 17:45:05;;;;;;;;;;;15.10;84.60;;;;;;5104306;28;19942;-72
2022/10/11 17:47:32;;;;;;;;;;;15.10;84.30;;;;;;5113496;28;19911;-72
2022/10/11 17:49:58;;;;;;;;;;;15.10;84.40;;;;;;5110089;28;19934;-72
2022/10/11 17:52:25;;;;;;;;;;;15.10;84.70;;;;;;5111828;27;19914;-72
2022/10/11 17:54:52;;;;;;;;;;;15.10;84.40;;;;;;5113795;28;19934;-72
2022/10/11 17:57:18;;;;;;;;;;;15.10;84.50;;;;;;5101760;28;20285;-72
2022/10/11 17:59:45;;;;;;;;;;;15.10;84.70;;;;;;5115299;27;19933;-72
2022/10/11 18:02:13;;;;;;;;;;;15.10;84.90;;;;;;5115799;27;20382;-72
2022/10/11 18:04:40;;;;;;;;;;;15.00;84.70;;;;;;5113573;28;19924;-72
2022/10/11 18:07:06;;;;;;;;;;;15.00;84.80;;;;;;5114182;28;19965;-72
2022/10/11 18:09:33;;;;;;;;;;;15.00;85.00;;;;;;5114159;28;19928;-72
2022/10/11 18:12:00;;;;;;;;;;;15.10;85.10;;;;;;5113812;28;19919;-72
2022/10/11 18:14:27;;;;;;;;;;;15.10;84.80;;;;;;5110660;28;19911;-72
2022/10/11 18:16:54;;;;;;;;;;;15.00;84.90;;;;;;5114497;28;20788;-72
2022/10/11 18:19:20;;;;;;;;;;;14.90;85.10;;;;;;5113143;28;20396;-73
2022/10/11 18:21:47;;;;;;;;;;;14.80;85.30;;;;;;5113831;28;19926;-73